Home   Weather   Marknesse   Past weeks
Flag for Netherlands

Past Weather in Marknesse, Netherlands — August 2021

Currently: 39 °F. Passing clouds. (Weather station: Amsterdam Schiphol Airport, Netherlands). See more current weather

August 2021 Weather in Marknesse — Graph

°F

High & Low Weather Summary for August 2021

 TemperatureHumidityPressure
High75 °F (Aug 11, 1:55 pm)100% (Aug 1, 2:55 am)30.39 "Hg (Aug 1, 2:55 am)
Low50 °F (Aug 2, 4:55 am)31% (Aug 15, 2:55 pm)29.47 "Hg (Aug 7, 4:55 pm)
Average63 °F81%29.99 "Hg
* Reported Aug 1 12:25 am — Aug 31 11:55 pm, Marknesse. Weather by CustomWeather, © 2021

Note: Actual official high and low records may vary slightly from our data, if they occured in-between our weather recording intervals... More about our weather records

Marknesse Weather History for August 1, 2021

Scroll right to see more
 ConditionsComfort  
Time TempWeatherWind HumidityBarometerVisibility
12:25 am
Sun, Aug 1
57 °FClear.6 mph94%29.80 "Hg10 mi
12:55 am57 °FClear.7 mph94%29.77 "Hg10 mi
1:25 am57 °FClear.7 mph94%29.77 "Hg6 mi
2:55 am59 °FPassing clouds.8 mph100%29.77 "Hg6 mi
3:25 am61 °FPassing clouds.8 mph94%29.77 "Hg6 mi
3:55 am59 °FPassing clouds.7 mph100%29.74 "HgN/A
4:25 am59 °FPassing clouds.7 mph94%29.74 "HgN/A
4:55 am59 °FPassing clouds.6 mph94%29.74 "HgN/A
5:25 am59 °FPassing clouds.6 mph94%29.74 "HgN/A
5:55 am59 °FPassing clouds.8 mph100%29.74 "HgN/A
6:25 am61 °FScattered clouds.7 mph94%29.74 "Hg6 mi
6:55 am61 °FSprinkles. Scattered clouds.9 mph94%29.74 "Hg5 mi
7:25 am61 °FPassing clouds.8 mph94%29.74 "Hg6 mi
7:55 am61 °FPassing clouds.9 mph100%29.74 "Hg5 mi
8:55 am63 °FPassing clouds.8 mph94%29.74 "HgN/A
9:25 am64 °FScattered clouds.10 mph88%29.74 "HgN/A
9:55 am64 °FSprinkles. Scattered clouds.13 mph88%29.74 "HgN/A
10:25 am64 °FScattered showers. Passing clouds.8 mph88%29.77 "HgN/A
10:55 am63 °FSprinkles. Scattered clouds.8 mph88%29.77 "HgN/A
11:25 am63 °FSprinkles. Scattered clouds.7 mph88%29.77 "Hg6 mi
11:55 am63 °FScattered showers. Passing clouds.7 mph88%29.77 "HgN/A
12:25 pm64 °FScattered showers. Passing clouds.5 mph88%29.77 "HgN/A
12:55 pm64 °FSprinkles. Partly sunny.12 mph78%29.77 "HgN/A
1:25 pm66 °FPartly sunny.12 mph78%29.80 "HgN/A
1:55 pm63 °FSprinkles. Partly sunny.15 mph83%29.80 "HgN/A
2:25 pm63 °FSprinkles. Partly sunny.8 mph88%29.80 "HgN/A
2:55 pm63 °FSprinkles. Scattered clouds.12 mph88%29.80 "HgN/A
3:25 pm64 °FScattered clouds.9 mph83%29.80 "HgN/A
3:55 pm64 °FPassing clouds.13 mph78%29.80 "HgN/A
4:25 pm64 °FPassing clouds.15 mph73%29.83 "HgN/A
4:55 pm63 °FPassing clouds.14 mph77%29.83 "HgN/A
5:25 pm64 °FPassing clouds.13 mph73%29.83 "HgN/A
5:55 pm64 °FPassing clouds.12 mph73%29.83 "HgN/A
6:25 pm64 °FPassing clouds.13 mph68%29.83 "HgN/A
6:55 pm64 °FPassing clouds.13 mph68%29.83 "HgN/A
7:25 pm63 °FPassing clouds.13 mph68%29.83 "HgN/A
7:55 pm63 °FPassing clouds.13 mph73%29.86 "HgN/A
8:25 pm61 °FPassing clouds.10 mph77%29.86 "HgN/A
8:55 pm61 °FPassing clouds.12 mph72%29.86 "HgN/A
9:25 pm57 °FPassing clouds.8 mph82%29.86 "HgN/A
9:55 pm57 °FPassing clouds.6 mph82%29.89 "HgN/A
10:25 pm55 °FPassing clouds.6 mph82%29.89 "HgN/A
10:55 pm54 °FPassing clouds.5 mph88%29.89 "HgN/A
11:25 pm55 °FPassing clouds.6 mph82%29.89 "HgN/A
11:55 pm54 °FPassing clouds.3 mph88%29.89 "HgN/A
Weather by CustomWeather, © 2021

See weather overview